Time;durP1;ratioP1;P1;durP2;ratioP2;P2;SDS_P1;SDS_P2;PMS_P1;PMS_P2;Temp;Humidity;BMP_temperature;BMP_pressure;BME280_temperature;BME280_humidity;BME280_pressure;Samples;Min_cycle;Max_cycle;Signal;HPM_P1;HPM_P2
2021/05/26 00:02:04;;;;;;;1.52;1.40;;;;;;;24.55;48.44;99890.86;1786528;78;21039;-70
2021/05/26 00:04:31;;;;;;;1.92;1.42;;;;;;;24.55;48.44;99896.30;1776971;80;21137;-70
2021/05/26 00:06:58;;;;;;;1.75;1.40;;;;;;;24.53;48.45;99890.59;1803071;78;21026;-71
2021/05/26 00:09:24;;;;;;;2.17;1.62;;;;;;;24.52;48.45;99894.37;1776510;78;21670;-71
2021/05/26 00:11:51;;;;;;;1.60;1.50;;;;;;;24.52;48.52;99890.30;1791424;78;21090;-70
2021/05/26 00:14:17;;;;;;;1.82;1.70;;;;;;;24.51;48.53;99891.91;1794802;78;21324;-71
2021/05/26 00:16:45;;;;;;;2.05;1.90;;;;;;;24.47;48.57;99892.11;1795141;79;21050;-70
2021/05/26 00:19:13;;;;;;;1.77;1.50;;;;;;;24.47;48.61;99898.38;1815399;78;21082;-71
2021/05/26 00:21:41;;;;;;;2.27;1.45;;;;;;;24.47;48.63;99897.02;1812055;78;21657;-71
2021/05/26 00:24:09;;;;;;;2.17;1.80;;;;;;;24.46;48.64;99893.20;1781456;79;21095;-72
2021/05/26 00:26:35;;;;;;;1.57;1.47;;;;;;;24.44;48.70;99889.38;1812803;78;21118;-71
2021/05/26 00:29:03;;;;;;;1.70;1.60;;;;;;;24.44;48.72;99896.17;1790580;78;21298;-72
2021/05/26 00:31:31;;;;;;;2.30;1.60;;;;;;;24.43;48.73;99892.34;1789632;78;21568;-72
2021/05/26 00:33:57;;;;;;;2.45;1.72;;;;;;;24.43;48.78;99889.63;1814197;78;21090;-72
2021/05/26 00:36:24;;;;;;;2.02;1.82;;;;;;;24.41;48.83;99888.52;1791220;79;21010;-71
2021/05/26 00:38:51;;;;;;;2.90;1.52;;;;;;;24.39;48.86;99884.44;1791695;78;21138;-71
2021/05/26 00:41:17;;;;;;;2.12;1.82;;;;;;;24.39;48.89;99884.44;1807578;78;21559;-71
2021/05/26 00:43:50;;;;;;;;;;;;;;;24.38;48.92;99878.70;1826975;78;21082;-71
2021/05/26 00:46:16;;;;;;;1.50;1.40;;;;;;;24.36;48.97;99884.42;1816694;78;20257;-73
2021/05/26 00:48:43;;;;;;;1.85;1.40;;;;;;;24.27;49.10;99881.33;1782969;79;21077;-72
2021/05/26 00:51:09;;;;;;;1.67;1.57;;;;;;;24.27;49.16;99880.52;1797709;78;21087;-73
2021/05/26 00:53:37;;;;;;;1.67;1.47;;;;;;;24.28;49.17;99875.34;1791085;79;21574;-74
2021/05/26 00:56:06;;;;;;;1.98;1.77;;;;;;;24.27;49.18;99872.37;1785921;79;21078;-74
2021/05/26 00:58:34;;;;;;;1.87;1.67;;;;;;;24.27;49.25;99880.52;1796869;78;21075;-75
2021/05/26 01:01:01;;;;;;;1.50;1.40;;;;;;;24.27;49.25;99878.61;1793530;78;21571;-71
2021/05/26 01:03:28;;;;;;;1.60;1.50;;;;;;;24.27;49.28;99879.16;1793475;78;21094;-72
2021/05/26 01:05:55;;;;;;;2.60;1.62;;;;;;;24.26;49.31;99877.50;1811597;78;21034;-72
2021/05/26 01:08:23;;;;;;;2.40;1.62;;;;;;;24.25;49.34;99871.81;1787518;79;21119;-71
2021/05/26 01:10:51;;;;;;;2.90;2.33;;;;;;;24.24;49.36;99868.80;1782996;78;21108;-71
2021/05/26 01:13:22;;;;;;;1.67;1.45;;;;;;;24.24;49.39;99874.22;1779955;78;21098;-72
2021/05/26 01:15:48;;;;;;;1.87;1.77;;;;;;;24.24;49.42;99874.22;1772715;80;21203;-73
2021/05/26 01:18:30;;;;;;;2.35;1.72;;;;;;;24.22;49.45;99867.72;1803953;78;21039;-71
2021/05/26 01:21:07;;;;;;;2.20;1.70;;;;;;;24.22;49.49;99862.80;1772907;80;21769;-71
2021/05/26 01:23:34;;;;;;;1.72;1.40;;;;;;;24.20;49.55;99858.98;1798750;78;21118;-71
2021/05/26 01:26:05;;;;;;;1.70;1.60;;;;;;;24.18;49.59;99854.34;1783388;78;21092;-72
2021/05/26 01:28:32;;;;;;;2.10;1.75;;;;;;;24.16;49.65;99851.62;1803154;78;21050;-71
2021/05/26 01:30:59;;;;;;;3.00;1.98;;;;;;;24.14;49.68;99845.92;1787273;78;21094;-71
2021/05/26 01:33:29;;;;;;;1.98;1.87;;;;;;;24.14;49.72;99847.28;1809311;78;21733;-70
2021/05/26 01:35:57;;;;;;;1.67;1.57;;;;;;;24.15;49.77;99852.16;1782495;78;21313;-72
2021/05/26 01:38:24;;;;;;;1.40;1.30;;;;;;;24.13;49.79;99851.05;1768694;80;21021;-72
2021/05/26 01:41:00;;;;;;;1.52;1.42;;;;;;;24.13;49.81;99848.89;1804290;78;21067;-72
2021/05/26 01:43:28;;;;;;;2.10;1.87;;;;;;;24.12;49.85;99853.47;1764647;80;21036;-71
2021/05/26 01:45:55;;;;;;;1.55;1.45;;;;;;;24.11;49.90;99852.39;1770974;80;21852;-70
2021/05/26 01:48:22;;;;;;;1.50;1.40;;;;;;;24.09;49.93;99855.36;1791487;80;21563;-71
2021/05/26 01:50:49;;;;;;;1.80;1.70;;;;;;;24.09;49.95;99854.00;1781648;79;21063;-72
2021/05/26 01:53:17;;;;;;;1.92;1.60;;;;;;;24.09;49.98;99854.00;1785291;78;21114;-70
2021/05/26 01:55:44;;;;;;;1.62;1.52;;;;;;;24.09;50.00;99850.48;1811668;78;21098;-71
2021/05/26 01:58:15;;;;;;;1.50;1.40;;;;;;;24.07;50.03;99848.01;1785209;79;21082;-70
2021/05/26 02:00:43;;;;;;;1.80;1.70;;;;;;;24.07;50.06;99857.51;1806568;78;21062;-72
2021/05/26 02:03:11;;;;;;;1.77;1.60;;;;;;;24.06;50.09;99862.64;1801009;78;22020;-71
2021/05/26 02:05:38;;;;;;;1.80;1.70;;;;;;;24.06;50.13;99855.04;1794996;78;21036;-70
2021/05/26 02:08:06;;;;;;;3.15;1.80;;;;;;;24.05;50.14;99843.89;1787656;78;21572;-70
2021/05/26 02:13:18;;;;;;;1.85;1.75;;;;;;;24.05;50.19;99843.89;1796782;79;21043;-71
2021/05/26 02:15:46;;;;;;;2.27;1.80;;;;;;;24.02;50.22;99831.66;1808443;78;21106;-71
2021/05/26 02:18:13;;;;;;;1.90;1.70;;;;;;;24.01;50.25;99834.11;1789577;78;21130;-72
2021/05/26 02:20:42;;;;;;;1.82;1.70;;;;;;;24.01;50.28;99833.27;1774472;80;21095;-71
2021/05/26 02:23:13;;;;;;;1.72;1.62;;;;;;;24.00;50.34;99833.81;1817739;78;21073;-73
2021/05/26 02:25:41;;;;;;;2.02;1.80;;;;;;;24.00;50.35;99831.09;1810159;78;21039;-71
2021/05/26 02:28:09;;;;;;;1.87;1.77;;;;;;;24.00;50.37;99820.80;1816952;78;21067;-73
2021/05/26 02:30:37;;;;;;;2.33;1.62;;;;;;;23.99;50.41;99823.20;1808942;78;21122;-72
2021/05/26 02:33:05;;;;;;;1.80;1.70;;;;;;;23.99;50.43;99832.19;1785566;79;21061;-72
2021/05/26 02:35:32;;;;;;;1.70;1.60;;;;;;;23.98;50.43;99834.61;1813666;78;21080;-71
2021/05/26 02:38:00;;;;;;;2.20;2.00;;;;;;;23.97;50.49;99843.84;1797766;78;21095;-71
2021/05/26 02:40:28;;;;;;;2.08;1.72;;;;;;;23.98;50.50;99847.36;1774542;79;21545;-71
2021/05/26 02:42:56;;;;;;;2.20;2.00;;;;;;;23.97;50.54;99855.20;1808980;78;21094;-70
2021/05/26 02:45:23;;;;;;;1.95;1.57;;;;;;;23.97;50.56;99853.84;1809763;78;21602;-70
2021/05/26 02:47:50;;;;;;;2.22;1.70;;;;;;;23.96;50.57;99854.39;1791513;78;21085;-70
2021/05/26 02:50:17;;;;;;;2.47;1.82;;;;;;;23.97;50.61;99853.33;1810585;78;21099;-69
2021/05/26 02:52:46;;;;;;;2.77;1.90;;;;;;;23.97;50.62;99864.19;1817595;78;21094;-71
2021/05/26 02:55:15;;;;;;;1.85;1.75;;;;;;;23.97;50.62;99865.55;1785999;78;21624;-70
2021/05/26 02:57:43;;;;;;;2.37;1.80;;;;;;;23.97;50.67;99855.20;1810719;78;22198;-68
2021/05/26 03:00:16;;;;;;;2.00;1.90;;;;;;;23.96;50.69;99850.32;1779460;80;21076;-69
2021/05/26 03:02:44;;;;;;;2.05;1.85;;;;;;;23.96;50.75;99850.32;1814986;78;21598;-69
2021/05/26 03:05:15;;;;;;;1.85;1.65;;;;;;;23.96;50.79;99857.11;1789374;78;21003;-71
2021/05/26 03:07:42;;;;;;;2.70;2.22;;;;;;;23.97;50.79;99847.91;1787179;78;21075;-71
2021/05/26 03:10:11;;;;;;;2.40;2.17;;;;;;;23.97;50.82;99828.91;1786894;78;21088;-69
2021/05/26 03:12:40;;;;;;;3.30;2.25;;;;;;;23.97;50.82;99831.63;1767279;79;21032;-69
2021/05/26 03:15:13;;;;;;;1.87;1.52;;;;;;;23.98;50.90;99825.66;1766053;80;21066;-71
2021/05/26 03:17:41;;;;;;;1.75;1.65;;;;;;;23.98;50.91;99826.47;1769324;80;21178;-69
2021/05/26 03:20:12;;;;;;;2.22;1.82;;;;;;;23.98;50.96;99811.55;1804748;79;21579;-69
2021/05/26 03:22:43;;;;;;;1.98;1.80;;;;;;;24.00;50.97;99816.17;1722276;79;20992;-70
2021/05/26 03:25:29;;;;;;;2.10;1.75;;;;;;;24.00;51.02;99814.81;1776690;79;22136;-70
2021/05/26 03:27:57;;;;;;;2.47;1.85;;;;;;;24.01;51.08;99822.41;1804924;79;21657;-69
2021/05/26 03:30:24;;;;;;;2.33;1.90;;;;;;;24.01;51.15;99825.97;1792848;79;21059;-69
2021/05/26 03:32:50;;;;;;;2.25;2.05;;;;;;;24.02;51.16;99829.49;1804416;79;21096;-70
2021/05/26 03:35:17;;;;;;;2.10;1.82;;;;;;;24.04;51.21;99839.01;1795323;79;21082;-68
2021/05/26 03:37:44;;;;;;;1.98;1.72;;;;;;;24.06;51.26;99842.28;1769112;80;21043;-69
2021/05/26 03:40:14;;;;;;;2.60;1.67;;;;;;;24.07;51.30;99852.62;1782073;80;21638;-71
2021/05/26 03:42:42;;;;;;;3.15;1.90;;;;;;;24.08;51.34;99861.03;1773111;80;21547;-69
2021/05/26 03:45:12;;;;;;;1.82;1.72;;;;;;;24.09;51.39;99873.00;1804835;79;21086;-69
2021/05/26 03:47:40;;;;;;;2.08;1.87;;;;;;;24.11;51.44;99887.67;1776661;80;21582;-69
2021/05/26 03:50:14;;;;;;;2.12;1.92;;;;;;;24.12;51.47;99890.11;1773205;80;21680;-69
2021/05/26 03:52:42;;;;;;;1.80;1.70;;;;;;;24.12;51.47;99895.54;1749473;80;21107;-70
2021/05/26 03:55:17;;;;;;;1.90;1.80;;;;;;;24.13;51.55;99899.91;1771315;79;21087;-68
2021/05/26 03:57:45;;;;;;;2.27;1.90;;;;;;;24.15;51.58;99907.80;1758834;80;21094;-69
2021/05/26 04:00:16;;;;;;;2.80;2.00;;;;;;;24.17;51.64;99902.13;1801307;79;21138;-70
2021/05/26 04:02:45;;;;;;;2.75;2.00;;;;;;;24.19;51.67;99900.78;1794703;79;21044;-70
2021/05/26 04:05:13;;;;;;;2.22;2.02;;;;;;;24.21;51.71;99899.99;1791667;79;21577;-70
2021/05/26 04:07:40;;;;;;;2.30;2.08;;;;;;;24.23;51.72;99903.81;1789233;79;21111;-69
2021/05/26 04:10:08;;;;;;;2.08;1.90;;;;;;;24.24;51.76;99906.80;1748577;79;21086;-68
2021/05/26 04:12:36;;;;;;;2.67;2.05;;;;;;;24.26;51.79;99915.50;1807465;78;21051;-69
2021/05/26 04:15:06;;;;;;;2.12;1.85;;;;;;;24.28;51.80;99920.98;1776651;78;21086;-69
2021/05/26 04:17:51;;;;;;;2.30;2.10;;;;;;;24.31;51.80;99921.00;1781664;78;21094;-69
2021/05/26 04:20:20;;;;;;;2.40;2.20;;;;;;;24.33;51.81;99911.52;1772500;80;21644;-70
2021/05/26 04:22:47;;;;;;;2.77;1.98;;;;;;;24.35;51.86;99928.91;1786998;78;21122;-71
2021/05/26 04:25:14;;;;;;;2.27;2.08;;;;;;;24.39;51.90;99922.44;1783250;79;21100;-71
2021/05/26 04:27:41;;;;;;;2.20;1.87;;;;;;;24.42;51.85;99921.40;1802429;78;21106;-70
2021/05/26 04:30:13;;;;;;;2.40;2.10;;;;;;;24.45;51.89;99926.84;1801447;78;21610;-69
2021/05/26 04:32:42;;;;;;;2.35;2.10;;;;;;;24.48;51.91;99919.56;1776682;80;21111;-69
2021/05/26 04:35:10;;;;;;;2.08;1.98;;;;;;;24.50;51.92;99923.65;1794140;78;21046;-69
2021/05/26 04:37:37;;;;;;;2.52;2.10;;;;;;;24.51;51.91;99913.11;1798391;78;20992;-70
2021/05/26 04:40:06;;;;;;;2.35;2.12;;;;;;;24.55;51.90;99912.58;1783140;78;21109;-70
2021/05/26 04:42:32;;;;;;;3.42;2.27;;;;;;;24.58;51.91;99908.82;1805182;78;21040;-69
2021/05/26 04:45:00;;;;;;;1.95;1.75;;;;;;;24.60;51.97;99904.50;1783360;79;21562;-69
2021/05/26 04:47:26;;;;;;;2.10;1.90;;;;;;;24.62;51.95;99900.98;1801221;78;21063;-70
2021/05/26 04:49:54;;;;;;;3.77;2.00;;;;;;;24.64;51.96;99913.77;1790525;78;21051;-71
2021/05/26 04:52:21;;;;;;;4.28;1.92;;;;;;;24.66;51.96;99907.54;1776863;78;21666;-71
2021/05/26 04:54:47;;;;;;;2.17;1.90;;;;;;;24.68;51.97;99914.89;1806518;78;21035;-71
2021/05/26 04:57:13;;;;;;;1.90;1.80;;;;;;;24.68;51.98;99916.25;1784172;79;21095;-70
2021/05/26 04:59:42;;;;;;;2.08;1.90;;;;;;;24.71;51.98;99915.74;1773566;78;21578;-70
2021/05/26 05:02:08;;;;;;;2.20;2.00;;;;;;;24.72;52.00;99916.01;1807058;78;21024;-70
2021/05/26 05:04:35;;;;;;;2.52;2.27;;;;;;;24.74;51.99;99919.29;1811510;78;21070;-70
2021/05/26 05:07:01;;;;;;;2.37;2.17;;;;;;;24.77;52.00;99916.06;1783848;78;21078;-73
2021/05/26 05:09:27;;;;;;;3.12;2.20;;;;;;;24.78;51.98;99909.54;1809737;78;21047;-71
2021/05/26 05:11:55;;;;;;;2.20;2.00;;;;;;;24.80;51.98;99911.49;1760013;79;21602;-69
2021/05/26 05:14:22;;;;;;;2.00;1.90;;;;;;;24.81;51.97;99917.19;1763953;79;21063;-71
2021/05/26 05:16:48;;;;;;;2.67;1.77;;;;;;;24.83;51.97;99910.95;1748945;80;21039;-70
2021/05/26 05:19:16;;;;;;;2.10;1.82;;;;;;;24.84;51.99;99915.33;1761458;79;21098;-70
2021/05/26 05:21:44;;;;;;;2.10;1.90;;;;;;;24.86;51.96;99910.45;1760385;79;21120;-70
2021/05/26 05:24:12;;;;;;;2.27;1.72;;;;;;;24.87;51.98;99906.64;1763692;79;21570;-69
2021/05/26 05:26:39;;;;;;;3.40;2.15;;;;;;;24.90;51.99;99905.32;1758730;79;21609;-69
2021/05/26 05:29:05;;;;;;;2.10;1.90;;;;;;;24.90;52.00;99917.55;1757260;79;22842;-71
2021/05/26 05:31:32;;;;;;;2.08;1.85;;;;;;;24.92;52.04;99926.27;1762502;79;21071;-71
2021/05/26 05:33:59;;;;;;;3.75;2.00;;;;;;;24.93;52.03;99925.98;1769801;79;21019;-69
2021/05/26 05:36:25;;;;;;;2.12;1.92;;;;;;;24.96;52.05;99927.38;1763359;79;21055;-72
2021/05/26 05:38:51;;;;;;;2.15;2.00;;;;;;;24.99;52.03;99920.59;1761444;79;21182;-69
2021/05/26 05:41:18;;;;;;;2.52;2.15;;;;;;;25.00;52.02;99928.50;1761450;79;21828;-70
2021/05/26 05:43:44;;;;;;;3.70;2.20;;;;;;;25.01;52.02;99923.33;1766205;79;21555;-70
2021/05/26 05:46:11;;;;;;;2.55;2.10;;;;;;;25.04;52.01;99923.37;1766373;79;21917;-69
2021/05/26 05:48:38;;;;;;;2.45;2.05;;;;;;;25.05;51.99;99938.58;1760246;80;21122;-72
2021/05/26 05:51:05;;;;;;;2.00;1.90;;;;;;;25.05;52.01;99932.63;1755613;81;21130;-70
2021/05/26 05:53:31;;;;;;;2.37;1.92;;;;;;;25.06;51.99;99941.05;1759115;79;21140;-71
2021/05/26 05:56:00;;;;;;;2.15;2.02;;;;;;;25.08;51.99;99933.45;1765408;79;21023;-70
2021/05/26 05:58:26;;;;;;;4.20;2.08;;;;;;;25.10;52.00;99935.91;1757991;79;21099;-70
2021/05/26 06:00:54;;;;;;;2.20;2.00;;;;;;;25.12;51.99;99934.56;1763882;79;21048;-69
2021/05/26 06:03:21;;;;;;;3.50;2.17;;;;;;;25.15;51.98;99940.56;1760015;79;21098;-71
2021/05/26 06:05:48;;;;;;;2.75;2.17;;;;;;;25.19;51.95;99945.75;1762396;79;21130;-71
2021/05/26 06:08:15;;;;;;;2.25;2.08;;;;;;;25.20;51.94;99948.22;1760837;79;21067;-70
2021/05/26 06:10:41;;;;;;;2.47;2.27;;;;;;;25.26;51.90;99957.27;1761704;79;21618;-71
2021/05/26 06:13:08;;;;;;;3.02;2.00;;;;;;;25.30;51.91;99948.86;1785061;79;21107;-70
2021/05/26 06:15:35;;;;;;;2.92;2.60;;;;;;;25.34;51.89;99941.82;1780313;79;21110;-68
2021/05/26 06:18:02;;;;;;;5.25;3.33;;;;;;;25.39;52.18;99945.95;1784409;79;21150;-69
2021/05/26 06:20:29;;;;;;;4.17;2.90;;;;;;;25.41;52.89;99949.77;1812592;78;21887;-68
2021/05/26 06:22:56;;;;;;;6.55;2.83;;;;;;;25.43;53.35;99941.62;1778558;79;21056;-67
2021/05/26 06:25:23;;;;;;;4.55;2.62;;;;;;;25.46;54.01;99944.38;1793678;78;21067;-67
2021/05/26 06:27:49;;;;;;;7.35;2.67;;;;;;;25.48;54.29;99951.19;1790287;79;21547;-68
2021/05/26 06:30:16;;;;;;;5.42;2.87;;;;;;;25.53;54.47;99950.94;1811993;78;21099;-69
2021/05/26 06:32:42;;;;;;;6.15;2.52;;;;;;;25.55;54.56;99961.02;1783637;79;21106;-72
2021/05/26 06:35:11;;;;;;;9.43;3.05;;;;;;;25.57;54.70;99961.02;1781663;79;21096;-67
2021/05/26 06:37:37;;;;;;;5.83;3.47;;;;;;;25.60;54.74;99967.86;1778038;80;21602;-66
2021/05/26 06:40:06;;;;;;;4.80;3.27;;;;;;;25.62;54.67;99956.98;1780302;79;21055;-66
2021/05/26 06:42:33;;;;;;;5.12;3.08;;;;;;;25.65;54.51;99956.47;1809375;78;21111;-66
2021/05/26 06:45:00;;;;;;;3.60;2.72;;;;;;;25.67;54.33;99958.90;1780313;78;21562;-65
2021/05/26 06:47:27;;;;;;;4.72;3.05;;;;;;;25.70;54.11;99965.19;1776403;79;21055;-68
2021/05/26 06:49:54;;;;;;;5.35;2.95;;;;;;;25.72;53.97;99966.30;1787194;78;21038;-67
2021/05/26 06:52:20;;;;;;;6.60;3.95;;;;;;;25.74;53.55;99976.38;1786112;79;21064;-66
2021/05/26 06:54:46;;;;;;;5.83;3.83;;;;;;;25.74;52.76;99978.54;1812059;78;21805;-65
2021/05/26 06:57:13;;;;;;;7.60;3.45;;;;;;;25.73;52.30;99973.36;1811723;78;21546;-68
2021/05/26 06:59:39;;;;;;;5.92;3.00;;;;;;;25.71;52.09;99989.97;1785309;79;21079;-67
2021/05/26 07:02:06;;;;;;;6.53;3.90;;;;;;;25.70;51.89;99979.60;1820917;78;21090;-67
2021/05/26 07:04:32;;;;;;;4.97;3.40;;;;;;;25.71;51.70;99979.08;1780329;79;21558;-66
2021/05/26 07:07:00;;;;;;;5.00;3.10;;;;;;;25.71;51.26;99979.08;1822518;78;21124;-68
2021/05/26 07:09:27;;;;;;;2.90;2.20;;;;;;;25.72;50.97;99975.81;1786121;79;21638;-69
2021/05/26 07:11:55;;;;;;;7.83;2.70;;;;;;;25.70;51.01;99985.05;1790905;78;21091;-67
2021/05/26 07:14:22;;;;;;;3.52;2.52;;;;;;;25.71;51.05;99987.25;1781326;78;21629;-68
2021/05/26 07:16:49;;;;;;;7.45;3.15;;;;;;;25.74;51.25;99987.25;1783916;78;21659;-67
2021/05/26 07:19:16;;;;;;;8.68;3.50;;;;;;;25.75;51.00;99990.23;1800316;78;21221;-68
2021/05/26 07:21:43;;;;;;;3.30;2.50;;;;;;;25.75;51.00;99992.95;1795612;78;21052;-69
2021/05/26 07:24:10;;;;;;;5.78;2.70;;;;;;;25.75;51.24;99997.88;1790206;78;21644;-75
2021/05/26 07:26:37;;;;;;;3.12;2.55;;;;;;;25.77;51.26;100004.39;1801297;78;21043;-72
2021/05/26 07:29:04;;;;;;;4.50;2.62;;;;;;;25.78;51.52;100003.33;1814088;78;21063;-69
2021/05/26 07:31:30;;;;;;;5.25;3.02;;;;;;;25.80;51.76;100001.16;1770774;79;21139;-68
2021/05/26 07:33:58;;;;;;;4.72;2.67;;;;;;;25.81;51.50;100010.43;1765289;80;21668;-71
2021/05/26 07:36:25;;;;;;;4.45;2.67;;;;;;;25.82;51.19;100003.89;1770289;80;21067;-71
2021/05/26 07:38:53;;;;;;;8.88;2.77;;;;;;;25.81;51.14;100001.45;1776636;80;21091;-69
2021/05/26 07:41:19;;;;;;;3.90;2.55;;;;;;;25.83;51.13;100003.37;1766040;80;21092;-69
2021/05/26 07:43:46;;;;;;;5.35;2.90;;;;;;;25.83;51.08;100010.17;1785283;79;21843;-69
2021/05/26 07:46:13;;;;;;;4.65;2.95;;;;;;;25.84;51.02;100010.44;1790037;78;21138;-69
2021/05/26 07:48:43;;;;;;;4.33;2.80;;;;;;;25.82;50.94;100004.44;1806086;77;21043;-69
2021/05/26 07:51:15;;;;;;;3.60;2.77;;;;;;;25.81;50.91;100013.70;1785362;78;21118;-67
2021/05/26 07:53:40;;;;;;;4.78;2.60;;;;;;;25.78;50.84;100010.94;1813937;78;21093;-71
2021/05/26 07:56:06;;;;;;;5.20;2.80;;;;;;;25.75;50.68;100012.84;1801443;78;22217;-71
2021/05/26 07:58:33;;;;;;;4.00;2.87;;;;;;;25.72;50.73;100011.19;1815028;78;21202;-69
2021/05/26 08:00:59;;;;;;;4.60;2.90;;;;;;;25.67;50.68;100020.95;1766421;79;21098;-67
2021/05/26 08:03:25;;;;;;;4.60;3.58;;;;;;;25.63;50.64;100023.08;1796857;78;21132;-69
2021/05/26 08:05:53;;;;;;;3.72;3.02;;;;;;;25.58;50.83;100022.52;1810015;79;21059;-70
2021/05/26 08:08:20;;;;;;;5.55;3.15;;;;;;;25.56;50.91;100027.39;1778161;80;21167;-69
2021/05/26 08:10:49;;;;;;;6.80;3.98;;;;;;;25.53;51.09;100030.63;1771789;79;21633;-69
2021/05/26 08:13:15;;;;;;;4.35;2.95;;;;;;;25.50;51.16;100034.69;1794592;78;21079;-68
2021/05/26 08:15:43;;;;;;;7.83;3.12;;;;;;;25.48;51.18;100031.96;1803862;78;21059;-68
2021/05/26 08:18:12;;;;;;;4.08;3.30;;;;;;;25.44;51.31;100034.89;1812353;78;21104;-71
2021/05/26 08:20:41;;;;;;;6.92;2.90;;;;;;;25.42;51.48;100035.70;1776892;80;21582;-70
2021/05/26 08:23:08;;;;;;;4.55;3.10;;;;;;;25.39;51.50;100025.36;1790990;79;21118;-70
2021/05/26 08:26:52;;;;;;;7.25;3.35;;;;;;;25.41;51.82;100029.99;1834472;76;22509;-69
2021/05/26 08:29:19;;;;;;;4.72;3.02;;;;;;;25.33;51.91;100029.11;1793304;77;21653;-72
2021/05/26 08:31:47;;;;;;;3.35;2.95;;;;;;;25.31;51.87;100027.46;1785668;78;22148;-70
2021/05/26 08:34:13;;;;;;;4.72;3.27;;;;;;;25.29;52.00;100025.55;1803576;78;20994;-67
2021/05/26 08:36:39;;;;;;;4.40;2.90;;;;;;;25.28;52.07;100031.23;1805170;77;21030;-68
2021/05/26 08:39:06;;;;;;;8.25;3.37;;;;;;;25.25;52.09;100033.94;1796158;78;21053;-66
2021/05/26 08:41:34;;;;;;;3.40;3.10;;;;;;;25.23;52.19;100027.94;1798761;77;21840;-70
2021/05/26 08:44:02;;;;;;;3.42;3.12;;;;;;;25.20;52.24;100029.77;1797944;77;21077;-68
2021/05/26 08:46:29;;;;;;;4.65;3.25;;;;;;;25.16;52.38;100024.58;1805413;77;21244;-66
2021/05/26 08:49:01;;;;;;;4.42;3.60;;;;;;;25.15;52.52;100024.31;1800731;78;20939;-68
2021/05/26 08:51:28;;;;;;;6.47;3.25;;;;;;;25.14;52.62;100028.09;1763618;78;21018;-70
2021/05/26 08:53:55;;;;;;;6.22;3.47;;;;;;;25.12;52.72;100027.53;1800805;77;21114;-69
2021/05/26 08:56:21;;;;;;;3.27;2.98;;;;;;;25.10;52.82;100035.12;1781255;79;21640;-69
2021/05/26 08:58:47;;;;;;;3.83;3.30;;;;;;;25.10;52.88;100035.94;1788149;77;21106;-72
2021/05/26 09:01:15;;;;;;;3.72;3.27;;;;;;;25.09;52.94;100041.11;1797092;79;21082;-74
2021/05/26 09:03:42;;;;;;;3.15;2.87;;;;;;;25.09;53.12;100045.19;1806790;77;21082;-70
2021/05/26 09:06:12;;;;;;;4.45;3.55;;;;;;;25.09;53.06;100047.06;1775725;79;21551;-68
2021/05/26 09:08:49;;;;;;;5.25;2.98;;;;;;;25.08;53.05;100050.32;1788443;77;21085;-72
2021/05/26 09:11:29;;;;;;;4.80;3.50;;;;;;;25.06;53.12;100047.59;1801448;78;21102;-70
2021/05/26 09:13:57;;;;;;;4.15;3.47;;;;;;;25.03;53.22;100045.38;1778836;77;21090;-70
2021/05/26 09:16:29;;;;;;;3.58;2.87;;;;;;;25.01;53.31;100043.45;1761022;79;21085;-69
2021/05/26 09:18:59;;;;;;;5.42;3.20;;;;;;;24.99;53.37;100042.34;1755625;79;21803;-72
2021/05/26 09:21:46;;;;;;;3.60;3.25;;;;;;;24.98;53.48;100039.91;1751307;79;21140;-73
2021/05/26 09:24:26;;;;;;;5.60;3.22;;;;;;;24.97;53.60;100044.50;1756756;79;21154;-71
2021/05/26 09:27:02;;;;;;;4.35;3.50;;;;;;;24.95;53.74;100045.30;1752419;79;21712;-71
2021/05/26 09:29:33;;;;;;;4.37;3.45;;;;;;;24.92;54.00;100045.82;1757027;79;21573;-70
2021/05/26 09:32:19;;;;;;;3.50;3.20;;;;;;;24.91;54.25;100044.98;1733900;81;21570;-68
2021/05/26 09:34:53;;;;;;;5.70;3.95;;;;;;;24.90;54.43;100050.70;1748360;80;21161;-70
2021/05/26 09:37:23;;;;;;;3.98;3.30;;;;;;;24.88;54.58;100043.34;1747659;79;21070;-69
2021/05/26 09:40:04;;;;;;;3.98;3.58;;;;;;;24.86;54.88;100045.45;1755567;79;21418;-70
2021/05/26 09:42:37;;;;;;;4.08;3.52;;;;;;;24.85;55.02;100046.01;1752776;79;21589;-70
2021/05/26 09:45:19;;;;;;;4.37;3.70;;;;;;;24.83;55.20;100051.42;1752758;80;21067;-73
2021/05/26 09:47:52;;;;;;;4.65;3.75;;;;;;;24.82;55.34;100055.20;1752995;79;21099;-70
2021/05/26 09:50:34;;;;;;;3.90;3.47;;;;;;;24.79;55.60;100051.11;1762514;80;21103;-71
2021/05/26 09:53:08;;;;;;;6.12;4.37;;;;;;;24.78;55.74;100054.88;1752524;79;21079;-69
2021/05/26 09:55:38;;;;;;;4.25;3.58;;;;;;;24.77;55.99;100054.62;1785512;79;21110;-69
2021/05/26 09:58:06;;;;;;;4.05;3.55;;;;;;;24.77;56.09;100053.80;1798045;79;21565;-71
2021/05/26 10:00:33;;;;;;;4.28;3.87;;;;;;;24.78;56.15;100063.58;1792160;79;21086;-71
2021/05/26 10:03:00;;;;;;;4.45;3.72;;;;;;;24.76;56.21;100061.11;1782362;79;21074;-70
2021/05/26 10:05:26;;;;;;;4.33;3.70;;;;;;;24.76;56.26;100068.45;1799434;77;21019;-71
2021/05/26 10:08:14;;;;;;;4.25;3.52;;;;;;;24.75;56.26;100069.00;1789627;79;21164;-72
2021/05/26 10:10:46;;;;;;;6.37;4.12;;;;;;;24.73;56.40;100084.73;1799694;77;21392;-74
2021/05/26 10:13:15;;;;;;;5.47;4.28;;;;;;;24.71;56.47;100080.90;1801103;79;21106;-72
2021/05/26 10:15:43;;;;;;;4.75;4.10;;;;;;;24.71;56.57;100086.88;1793396;77;21169;-73
2021/05/26 10:18:11;;;;;;;4.15;3.72;;;;;;;24.69;56.58;100083.59;1766099;79;21097;-70
2021/05/26 10:20:39;;;;;;;4.20;3.80;;;;;;;24.67;56.67;100078.95;1796640;78;21063;-69
2021/05/26 10:23:06;;;;;;;4.10;3.70;;;;;;;24.65;56.78;100084.64;1776179;79;21078;-67
2021/05/26 10:25:33;;;;;;;4.92;3.95;;;;;;;24.63;56.94;100084.07;1794346;79;21154;-69
2021/05/26 10:28:00;;;;;;;4.42;3.83;;;;;;;24.63;57.00;100084.07;1791601;77;21030;-71
2021/05/26 10:30:29;;;;;;;4.65;3.80;;;;;;;24.62;57.05;100082.95;1804652;79;21168;-68
2021/05/26 10:33:05;;;;;;;3.98;3.50;;;;;;;24.62;57.17;100084.31;1790969;77;21065;-69
2021/05/26 10:35:34;;;;;;;5.17;4.20;;;;;;;24.62;57.15;100076.98;1790913;79;21840;-71
2021/05/26 10:38:07;;;;;;;4.95;4.15;;;;;;;24.64;57.25;100080.81;1805588;79;21086;-66
2021/05/26 10:40:38;;;;;;;6.78;3.75;;;;;;;24.63;57.33;100071.03;1785008;77;21034;-64
2021/05/26 10:43:20;;;;;;;4.28;3.83;;;;;;;24.63;57.38;100066.96;1795048;79;21034;-67
2021/05/26 10:45:48;;;;;;;4.55;4.15;;;;;;;24.64;57.30;100072.66;1800919;77;21102;-71
2021/05/26 10:48:35;;;;;;;5.37;3.85;;;;;;;24.64;57.38;100069.40;1795171;79;21514;-67
2021/05/26 10:51:02;;;;;;;5.97;3.47;;;;;;;24.65;57.83;100080.56;1803788;77;22288;-66
2021/05/26 10:53:42;;;;;;;4.33;3.65;;;;;;;24.67;57.97;100072.17;1793231;77;21102;-64
2021/05/26 10:56:36;;;;;;;6.62;3.90;;;;;;;24.69;58.15;100072.73;1790408;79;21022;-66
2021/05/26 10:59:13;;;;;;;4.17;3.77;;;;;;;24.73;58.17;100063.81;1809814;79;21019;-66
2021/05/26 11:02:12;;;;;;;4.17;3.77;;;;;;;24.75;58.22;100067.64;1795343;77;21054;-70
2021/05/26 11:04:37;;;;;;;3.75;3.35;;;;;;;24.78;58.52;100065.75;1786563;79;21137;-68
2021/05/26 11:07:18;;;;;;;5.45;3.72;;;;;;;24.81;58.53;100065.26;1792253;79;21300;-70
2021/05/26 11:10:02;;;;;;;4.83;3.77;;;;;;;24.84;58.21;100064.76;1776898;79;21057;-68
2021/05/26 11:12:50;;;;;;;3.87;3.52;;;;;;;24.87;57.96;100068.30;1787545;77;21034;-66
2021/05/26 11:15:44;;;;;;;3.85;3.55;;;;;;;24.89;57.80;100059.91;1791894;79;21660;-73
2021/05/26 11:18:34;;;;;;;3.90;3.60;;;;;;;24.90;57.73;100058.84;1788853;79;21114;-70
2021/05/26 11:20:43;;;;;;;4.25;3.72;;;;;;;24.89;57.86;100055.83;1775395;78;21116;-70
2021/05/26 11:23:11;;;;;;;3.95;3.55;;;;;;;24.89;57.86;100053.11;1807911;79;21092;-70
2021/05/26 11:25:54;;;;;;;3.67;3.37;;;;;;;24.87;57.97;100052.00;1759055;79;21618;-69
2021/05/26 11:28:29;;;;;;;4.92;3.40;;;;;;;24.90;57.97;100051.51;1785996;77;21046;-70
2021/05/26 11:31:07;;;;;;;3.83;3.22;;;;;;;24.91;57.96;100051.77;1782375;79;21069;-66
2021/05/26 11:33:35;;;;;;;3.95;3.40;;;;;;;24.94;57.89;100053.18;1795567;79;21616;-70
2021/05/26 11:36:08;;;;;;;4.03;3.50;;;;;;;24.97;57.81;100050.48;1807037;77;21055;-71
2021/05/26 11:38:35;;;;;;;3.90;3.30;;;;;;;24.99;57.71;100045.06;1793586;77;21069;-73
2021/05/26 11:41:03;;;;;;;4.85;3.50;;;;;;;25.02;57.59;100045.11;1782471;79;21093;-70
2021/05/26 11:43:31;;;;;;;4.37;3.92;;;;;;;25.04;57.52;100045.13;1752512;78;21144;-71
2021/05/26 11:46:07;;;;;;;5.00;3.75;;;;;;;25.07;57.44;100044.63;1780958;79;21554;-72